sensor_id;sensor_type;location;lat;lon;timestamp;temperature;humidity
18103;DHT22;9178;51.120;6.192;2023-03-23T00:00:22;12.60;99.90
18103;DHT22;9178;51.120;6.192;2023-03-23T00:02:49;12.50;99.90
18103;DHT22;9178;51.120;6.192;2023-03-23T00:05:16;12.50;99.90
18103;DHT22;9178;51.120;6.192;2023-03-23T00:07:44;12.60;99.90
18103;DHT22;9178;51.120;6.192;2023-03-23T00:10:11;12.50;99.90
18103;DHT22;9178;51.120;6.192;2023-03-23T00:12:38;12.50;99.90
18103;DHT22;9178;51.120;6.192;2023-03-23T00:15:08;12.50;99.90
18103;DHT22;9178;51.120;6.192;2023-03-23T00:17:38;12.50;99.90
18103;DHT22;9178;51.120;6.192;2023-03-23T00:20:06;12.50;99.90
18103;DHT22;9178;51.120;6.192;2023-03-23T00:22:37;12.50;99.90
18103;DHT22;9178;51.120;6.192;2023-03-23T00:25:06;12.40;99.90
18103;DHT22;9178;51.120;6.192;2023-03-23T00:27:33;12.40;99.90
18103;DHT22;9178;51.120;6.192;2023-03-23T00:30:00;12.40;99.90
18103;DHT22;9178;51.120;6.192;2023-03-23T00:32:27;12.50;99.90
18103;DHT22;9178;51.120;6.192;2023-03-23T00:34:56;12.50;99.90
18103;DHT22;9178;51.120;6.192;2023-03-23T00:37:24;12.50;99.90
18103;DHT22;9178;51.120;6.192;2023-03-23T00:39:51;12.50;99.90
18103;DHT22;9178;51.120;6.192;2023-03-23T00:42:24;12.50;99.90
18103;DHT22;9178;51.120;6.192;2023-03-23T00:44:51;12.50;99.90
18103;DHT22;9178;51.120;6.192;2023-03-23T00:47:26;12.50;99.90
18103;DHT22;9178;51.120;6.192;2023-03-23T00:49:53;12.50;99.90
18103;DHT22;9178;51.120;6.192;2023-03-23T00:52:22;12.50;99.90
18103;DHT22;9178;51.120;6.192;2023-03-23T00:54:49;12.50;99.90
18103;DHT22;9178;51.120;6.192;2023-03-23T00:57:16;12.50;99.90
18103;DHT22;9178;51.120;6.192;2023-03-23T00:59:44;12.50;99.90
18103;DHT22;9178;51.120;6.192;2023-03-23T01:02:11;12.50;99.90
18103;DHT22;9178;51.120;6.192;2023-03-23T01:04:38;12.40;99.90
18103;DHT22;9178;51.120;6.192;2023-03-23T01:07:05;12.50;99.90
18103;DHT22;9178;51.120;6.192;2023-03-23T01:09:33;12.50;99.90
18103;DHT22;9178;51.120;6.192;2023-03-23T01:12:01;12.50;99.90
18103;DHT22;9178;51.120;6.192;2023-03-23T01:14:28;12.50;99.90
18103;DHT22;9178;51.120;6.192;2023-03-23T01:16:57;12.50;99.90
18103;DHT22;9178;51.120;6.192;2023-03-23T01:19:24;12.40;99.90
18103;DHT22;9178;51.120;6.192;2023-03-23T01:21:50;12.40;99.90
18103;DHT22;9178;51.120;6.192;2023-03-23T01:24:17;12.40;99.90
18103;DHT22;9178;51.120;6.192;2023-03-23T01:26:44;12.30;99.90
18103;DHT22;9178;51.120;6.192;2023-03-23T01:29:11;12.30;99.90
18103;DHT22;9178;51.120;6.192;2023-03-23T01:31:39;12.30;99.90
18103;DHT22;9178;51.120;6.192;2023-03-23T01:34:09;12.30;99.90
18103;DHT22;9178;51.120;6.192;2023-03-23T01:36:36;12.30;99.90
18103;DHT22;9178;51.120;6.192;2023-03-23T01:39:04;12.30;99.90
18103;DHT22;9178;51.120;6.192;2023-03-23T01:41:33;12.30;99.90
18103;DHT22;9178;51.120;6.192;2023-03-23T01:44:03;12.20;99.90
18103;DHT22;9178;51.120;6.192;2023-03-23T01:46:32;12.20;99.90
18103;DHT22;9178;51.120;6.192;2023-03-23T01:49:03;12.20;99.90
18103;DHT22;9178;51.120;6.192;2023-03-23T01:51:38;12.20;99.90
18103;DHT22;9178;51.120;6.192;2023-03-23T01:54:09;12.20;99.90
18103;DHT22;9178;51.120;6.192;2023-03-23T01:56:42;12.20;99.90
18103;DHT22;9178;51.120;6.192;2023-03-23T01:59:12;12.20;99.90
18103;DHT22;9178;51.120;6.192;2023-03-23T02:01:39;12.20;99.90
18103;DHT22;9178;51.120;6.192;2023-03-23T02:04:10;12.10;99.90
18103;DHT22;9178;51.120;6.192;2023-03-23T02:06:39;12.10;99.90
18103;DHT22;9178;51.120;6.192;2023-03-23T02:09:06;12.10;99.90
18103;DHT22;9178;51.120;6.192;2023-03-23T02:11:33;12.10;99.90
18103;DHT22;9178;51.120;6.192;2023-03-23T02:14:01;12.10;99.90
18103;DHT22;9178;51.120;6.192;2023-03-23T02:16:33;12.00;99.90
18103;DHT22;9178;51.120;6.192;2023-03-23T02:19:18;12.10;99.90
18103;DHT22;9178;51.120;6.192;2023-03-23T02:25:36;12.00;99.90
18103;DHT22;9178;51.120;6.192;2023-03-23T02:28:31;12.00;99.90
18103;DHT22;9178;51.120;6.192;2023-03-23T02:31:38;12.00;99.90
18103;DHT22;9178;51.120;6.192;2023-03-23T02:34:13;12.00;99.90
18103;DHT22;9178;51.120;6.192;2023-03-23T02:36:46;12.10;99.90
18103;DHT22;9178;51.120;6.192;2023-03-23T02:39:18;12.00;99.90
18103;DHT22;9178;51.120;6.192;2023-03-23T02:41:53;12.10;99.90
18103;DHT22;9178;51.120;6.192;2023-03-23T02:44:22;12.10;99.90
18103;DHT22;9178;51.120;6.192;2023-03-23T02:46:51;12.20;99.90
18103;DHT22;9178;51.120;6.192;2023-03-23T02:49:22;12.20;99.90
18103;DHT22;9178;51.120;6.192;2023-03-23T02:51:51;12.10;99.90
18103;DHT22;9178;51.120;6.192;2023-03-23T02:54:20;12.10;99.90
18103;DHT22;9178;51.120;6.192;2023-03-23T02:56:51;12.20;99.90
18103;DHT22;9178;51.120;6.192;2023-03-23T02:59:18;12.20;99.90
18103;DHT22;9178;51.120;6.192;2023-03-23T03:01:57;12.20;99.90
18103;DHT22;9178;51.120;6.192;2023-03-23T03:04:30;12.20;99.90
18103;DHT22;9178;51.120;6.192;2023-03-23T03:09:52;12.10;99.90
18103;DHT22;9178;51.120;6.192;2023-03-23T03:12:26;12.10;99.90
18103;DHT22;9178;51.120;6.192;2023-03-23T03:15:02;12.20;99.90
18103;DHT22;9178;51.120;6.192;2023-03-23T03:17:34;12.20;99.90
18103;DHT22;9178;51.120;6.192;2023-03-23T03:20:08;12.10;99.90
18103;DHT22;9178;51.120;6.192;2023-03-23T03:22:38;12.10;99.90
18103;DHT22;9178;51.120;6.192;2023-03-23T03:25:08;12.10;99.90
18103;DHT22;9178;51.120;6.192;2023-03-23T03:27:38;12.20;99.90
18103;DHT22;9178;51.120;6.192;2023-03-23T03:30:09;12.20;99.90
18103;DHT22;9178;51.120;6.192;2023-03-23T03:32:41;12.20;99.90
18103;DHT22;9178;51.120;6.192;2023-03-23T03:35:13;12.20;99.90
18103;DHT22;9178;51.120;6.192;2023-03-23T03:37:41;12.20;99.90
18103;DHT22;9178;51.120;6.192;2023-03-23T03:40:11;12.10;99.90
18103;DHT22;9178;51.120;6.192;2023-03-23T03:42:40;12.20;99.90
18103;DHT22;9178;51.120;6.192;2023-03-23T03:45:08;12.10;99.90
18103;DHT22;9178;51.120;6.192;2023-03-23T03:47:36;12.10;99.90
18103;DHT22;9178;51.120;6.192;2023-03-23T03:50:03;12.20;99.90
18103;DHT22;9178;51.120;6.192;2023-03-23T03:52:32;12.10;99.90
18103;DHT22;9178;51.120;6.192;2023-03-23T03:54:59;12.20;99.90
18103;DHT22;9178;51.120;6.192;2023-03-23T03:57:26;12.20;99.90
18103;DHT22;9178;51.120;6.192;2023-03-23T03:59:56;12.10;99.90
18103;DHT22;9178;51.120;6.192;2023-03-23T04:02:23;12.10;99.90
18103;DHT22;9178;51.120;6.192;2023-03-23T04:04:50;12.10;99.90
18103;DHT22;9178;51.120;6.192;2023-03-23T04:07:18;12.10;99.90
18103;DHT22;9178;51.120;6.192;2023-03-23T04:09:48;12.10;99.90
18103;DHT22;9178;51.120;6.192;2023-03-23T04:12:15;12.10;99.90
18103;DHT22;9178;51.120;6.192;2023-03-23T04:14:42;12.10;99.90
18103;DHT22;9178;51.120;6.192;2023-03-23T04:17:09;12.10;99.90
18103;DHT22;9178;51.120;6.192;2023-03-23T04:19:36;12.10;99.90
18103;DHT22;9178;51.120;6.192;2023-03-23T04:22:04;12.10;99.90
18103;DHT22;9178;51.120;6.192;2023-03-23T04:24:31;12.10;99.90
18103;DHT22;9178;51.120;6.192;2023-03-23T04:27:02;12.10;99.90
18103;DHT22;9178;51.120;6.192;2023-03-23T04:29:29;12.10;99.90
18103;DHT22;9178;51.120;6.192;2023-03-23T04:31:59;12.10;99.90
18103;DHT22;9178;51.120;6.192;2023-03-23T04:34:26;12.00;99.90
18103;DHT22;9178;51.120;6.192;2023-03-23T04:36:53;12.00;99.90
18103;DHT22;9178;51.120;6.192;2023-03-23T04:39:21;12.00;99.90
18103;DHT22;9178;51.120;6.192;2023-03-23T04:41:49;12.00;99.90
18103;DHT22;9178;51.120;6.192;2023-03-23T04:44:18;12.00;99.90
18103;DHT22;9178;51.120;6.192;2023-03-23T04:46:46;12.00;99.90
18103;DHT22;9178;51.120;6.192;2023-03-23T04:49:15;12.00;99.90
18103;DHT22;9178;51.120;6.192;2023-03-23T04:51:46;12.00;99.90
18103;DHT22;9178;51.120;6.192;2023-03-23T04:54:14;12.00;99.90
18103;DHT22;9178;51.120;6.192;2023-03-23T04:56:41;12.00;99.90
18103;DHT22;9178;51.120;6.192;2023-03-23T04:59:08;12.00;99.90
18103;DHT22;9178;51.120;6.192;2023-03-23T05:01:36;12.00;99.90
18103;DHT22;9178;51.120;6.192;2023-03-23T05:04:04;12.00;99.90
18103;DHT22;9178;51.120;6.192;2023-03-23T05:06:31;12.00;99.90
18103;DHT22;9178;51.120;6.192;2023-03-23T05:08:58;12.00;99.90
18103;DHT22;9178;51.120;6.192;2023-03-23T05:11:25;12.00;99.90
18103;DHT22;9178;51.120;6.192;2023-03-23T05:13:52;12.00;99.90
18103;DHT22;9178;51.120;6.192;2023-03-23T05:16:19;12.00;99.90
18103;DHT22;9178;51.120;6.192;2023-03-23T05:18:47;12.00;99.90
18103;DHT22;9178;51.120;6.192;2023-03-23T05:21:14;12.00;99.90
18103;DHT22;9178;51.120;6.192;2023-03-23T05:23:44;12.00;99.90
18103;DHT22;9178;51.120;6.192;2023-03-23T05:26:12;12.00;99.90
18103;DHT22;9178;51.120;6.192;2023-03-23T05:28:39;11.90;99.90
18103;DHT22;9178;51.120;6.192;2023-03-23T05:31:07;12.00;99.90
18103;DHT22;9178;51.120;6.192;2023-03-23T05:33:34;11.90;99.90
18103;DHT22;9178;51.120;6.192;2023-03-23T05:36:03;11.80;99.90
18103;DHT22;9178;51.120;6.192;2023-03-23T05:38:32;11.80;99.90
18103;DHT22;9178;51.120;6.192;2023-03-23T05:40:59;11.80;99.90
18103;DHT22;9178;51.120;6.192;2023-03-23T05:43:26;11.80;99.90
18103;DHT22;9178;51.120;6.192;2023-03-23T05:45:53;11.80;99.90
18103;DHT22;9178;51.120;6.192;2023-03-23T05:48:20;11.90;99.90
18103;DHT22;9178;51.120;6.192;2023-03-23T05:50:47;11.80;99.90
18103;DHT22;9178;51.120;6.192;2023-03-23T05:53:15;11.80;99.90
18103;DHT22;9178;51.120;6.192;2023-03-23T05:55:42;11.90;99.90
18103;DHT22;9178;51.120;6.192;2023-03-23T05:58:09;11.90;99.90
18103;DHT22;9178;51.120;6.192;2023-03-23T06:00:36;11.90;99.90
18103;DHT22;9178;51.120;6.192;2023-03-23T06:03:03;11.90;99.90
18103;DHT22;9178;51.120;6.192;2023-03-23T06:05:29;11.90;99.90
18103;DHT22;9178;51.120;6.192;2023-03-23T06:07:56;11.90;99.90
18103;DHT22;9178;51.120;6.192;2023-03-23T06:10:25;11.90;99.90
18103;DHT22;9178;51.120;6.192;2023-03-23T06:12:52;12.00;99.90
18103;DHT22;9178;51.120;6.192;2023-03-23T06:15:18;12.00;99.90
18103;DHT22;9178;51.120;6.192;2023-03-23T06:17:45;12.00;99.90
18103;DHT22;9178;51.120;6.192;2023-03-23T06:20:12;12.00;99.90
18103;DHT22;9178;51.120;6.192;2023-03-23T06:22:40;12.00;99.90
18103;DHT22;9178;51.120;6.192;2023-03-23T06:25:08;12.10;99.90
18103;DHT22;9178;51.120;6.192;2023-03-23T06:27:38;12.10;99.90
18103;DHT22;9178;51.120;6.192;2023-03-23T06:30:06;12.10;99.90
18103;DHT22;9178;51.120;6.192;2023-03-23T06:32:33;12.10;99.90
18103;DHT22;9178;51.120;6.192;2023-03-23T06:35:01;12.10;99.90
18103;DHT22;9178;51.120;6.192;2023-03-23T06:37:29;12.10;99.90
18103;DHT22;9178;51.120;6.192;2023-03-23T06:39:55;12.10;99.90
18103;DHT22;9178;51.120;6.192;2023-03-23T06:42:23;12.20;99.90
18103;DHT22;9178;51.120;6.192;2023-03-23T06:44:52;12.20;99.90
18103;DHT22;9178;51.120;6.192;2023-03-23T06:47:22;12.20;99.90
18103;DHT22;9178;51.120;6.192;2023-03-23T06:49:48;12.20;99.90
18103;DHT22;9178;51.120;6.192;2023-03-23T06:52:15;12.20;99.90
18103;DHT22;9178;51.120;6.192;2023-03-23T06:54:43;12.30;99.90
18103;DHT22;9178;51.120;6.192;2023-03-23T06:57:09;12.30;99.90
18103;DHT22;9178;51.120;6.192;2023-03-23T06:59:37;12.30;99.90
18103;DHT22;9178;51.120;6.192;2023-03-23T07:02:05;12.30;99.90
18103;DHT22;9178;51.120;6.192;2023-03-23T07:04:32;12.30;99.90
18103;DHT22;9178;51.120;6.192;2023-03-23T07:06:59;12.30;99.90
18103;DHT22;9178;51.120;6.192;2023-03-23T07:09:27;12.30;99.90
18103;DHT22;9178;51.120;6.192;2023-03-23T07:11:53;12.40;99.90
18103;DHT22;9178;51.120;6.192;2023-03-23T07:14:21;12.40;99.90
18103;DHT22;9178;51.120;6.192;2023-03-23T07:16:48;12.40;99.90
18103;DHT22;9178;51.120;6.192;2023-03-23T07:19:17;12.40;99.90
18103;DHT22;9178;51.120;6.192;2023-03-23T07:21:43;12.40;99.90
18103;DHT22;9178;51.120;6.192;2023-03-23T07:24:11;12.50;99.90
18103;DHT22;9178;51.120;6.192;2023-03-23T07:26:39;12.50;99.90
18103;DHT22;9178;51.120;6.192;2023-03-23T07:29:06;12.50;99.90
18103;DHT22;9178;51.120;6.192;2023-03-23T07:31:33;12.50;99.90
18103;DHT22;9178;51.120;6.192;2023-03-23T07:34:01;12.50;99.90
18103;DHT22;9178;51.120;6.192;2023-03-23T07:36:30;12.60;99.90
18103;DHT22;9178;51.120;6.192;2023-03-23T07:38:58;12.60;99.90
18103;DHT22;9178;51.120;6.192;2023-03-23T07:41:25;12.60;99.90
18103;DHT22;9178;51.120;6.192;2023-03-23T07:43:52;12.70;99.90
18103;DHT22;9178;51.120;6.192;2023-03-23T07:46:19;12.70;99.90
18103;DHT22;9178;51.120;6.192;2023-03-23T07:48:46;12.70;99.90
18103;DHT22;9178;51.120;6.192;2023-03-23T07:51:13;12.80;99.90
18103;DHT22;9178;51.120;6.192;2023-03-23T07:53:43;12.80;99.90
18103;DHT22;9178;51.120;6.192;2023-03-23T07:56:12;12.80;99.90
18103;DHT22;9178;51.120;6.192;2023-03-23T07:58:40;12.90;99.90
18103;DHT22;9178;51.120;6.192;2023-03-23T08:01:07;12.90;99.90
18103;DHT22;9178;51.120;6.192;2023-03-23T08:03:34;12.90;99.90
18103;DHT22;9178;51.120;6.192;2023-03-23T08:06:01;13.00;99.90
18103;DHT22;9178;51.120;6.192;2023-03-23T08:08:28;13.00;99.90
18103;DHT22;9178;51.120;6.192;2023-03-23T08:10:57;13.00;99.90
18103;DHT22;9178;51.120;6.192;2023-03-23T08:13:24;13.10;99.90
18103;DHT22;9178;51.120;6.192;2023-03-23T08:15:51;13.20;99.90
18103;DHT22;9178;51.120;6.192;2023-03-23T08:18:18;13.20;99.90
18103;DHT22;9178;51.120;6.192;2023-03-23T08:20:45;13.20;99.90
18103;DHT22;9178;51.120;6.192;2023-03-23T08:23:12;13.20;99.90
18103;DHT22;9178;51.120;6.192;2023-03-23T08:25:41;13.20;99.90
18103;DHT22;9178;51.120;6.192;2023-03-23T08:28:09;13.30;99.90
18103;DHT22;9178;51.120;6.192;2023-03-23T08:30:38;13.30;99.90
18103;DHT22;9178;51.120;6.192;2023-03-23T08:33:05;13.40;99.90
18103;DHT22;9178;51.120;6.192;2023-03-23T08:35:33;13.40;99.90
18103;DHT22;9178;51.120;6.192;2023-03-23T08:38:00;13.40;99.90
18103;DHT22;9178;51.120;6.192;2023-03-23T08:40:28;13.50;99.90
18103;DHT22;9178;51.120;6.192;2023-03-23T08:42:55;13.60;99.90
18103;DHT22;9178;51.120;6.192;2023-03-23T08:45:24;13.60;99.90
18103;DHT22;9178;51.120;6.192;2023-03-23T08:47:52;13.70;99.90
18103;DHT22;9178;51.120;6.192;2023-03-23T08:50:21;13.70;99.90
18103;DHT22;9178;51.120;6.192;2023-03-23T08:52:49;13.70;99.90
18103;DHT22;9178;51.120;6.192;2023-03-23T08:55:17;13.70;99.90
18103;DHT22;9178;51.120;6.192;2023-03-23T08:57:44;13.70;99.90
18103;DHT22;9178;51.120;6.192;2023-03-23T09:00:14;13.70;99.90
18103;DHT22;9178;51.120;6.192;2023-03-23T09:02:45;13.70;99.90
18103;DHT22;9178;51.120;6.192;2023-03-23T09:05:13;13.60;99.90
18103;DHT22;9178;51.120;6.192;2023-03-23T09:07:41;13.60;99.90
18103;DHT22;9178;51.120;6.192;2023-03-23T09:10:09;13.60;99.90
18103;DHT22;9178;51.120;6.192;2023-03-23T09:12:36;13.50;99.90
18103;DHT22;9178;51.120;6.192;2023-03-23T09:15:04;13.50;99.90
18103;DHT22;9178;51.120;6.192;2023-03-23T09:17:34;13.50;99.90
18103;DHT22;9178;51.120;6.192;2023-03-23T09:20:04;13.40;99.90
18103;DHT22;9178;51.120;6.192;2023-03-23T09:22:36;13.20;99.90
18103;DHT22;9178;51.120;6.192;2023-03-23T09:25:04;12.80;99.90
18103;DHT22;9178;51.120;6.192;2023-03-23T09:27:31;12.40;99.90
18103;DHT22;9178;51.120;6.192;2023-03-23T09:29:58;12.00;99.90
18103;DHT22;9178;51.120;6.192;2023-03-23T09:32:26;11.70;99.90
18103;DHT22;9178;51.120;6.192;2023-03-23T09:34:53;11.40;99.90
18103;DHT22;9178;51.120;6.192;2023-03-23T09:37:23;11.20;99.90
18103;DHT22;9178;51.120;6.192;2023-03-23T09:39:50;11.10;99.90
18103;DHT22;9178;51.120;6.192;2023-03-23T09:42:41;11.00;99.90
18103;DHT22;9178;51.120;6.192;2023-03-23T09:45:19;10.90;99.90
18103;DHT22;9178;51.120;6.192;2023-03-23T09:47:59;10.90;99.90
18103;DHT22;9178;51.120;6.192;2023-03-23T09:50:29;10.80;99.90
18103;DHT22;9178;51.120;6.192;2023-03-23T09:53:02;10.80;99.90
18103;DHT22;9178;51.120;6.192;2023-03-23T09:55:30;10.80;99.90
18103;DHT22;9178;51.120;6.192;2023-03-23T09:58:01;10.90;99.90
18103;DHT22;9178;51.120;6.192;2023-03-23T10:00:32;10.80;99.90
18103;DHT22;9178;51.120;6.192;2023-03-23T10:03:06;10.80;99.90
18103;DHT22;9178;51.120;6.192;2023-03-23T10:05:35;10.70;99.90
18103;DHT22;9178;51.120;6.192;2023-03-23T10:08:11;10.70;99.90
18103;DHT22;9178;51.120;6.192;2023-03-23T10:10:53;10.70;99.90
18103;DHT22;9178;51.120;6.192;2023-03-23T10:13:35;10.70;99.90
18103;DHT22;9178;51.120;6.192;2023-03-23T10:16:07;10.70;99.90
18103;DHT22;9178;51.120;6.192;2023-03-23T10:18:38;10.70;99.90
18103;DHT22;9178;51.120;6.192;2023-03-23T10:21:11;10.70;99.90
18103;DHT22;9178;51.120;6.192;2023-03-23T10:23:51;10.70;99.90
18103;DHT22;9178;51.120;6.192;2023-03-23T10:26:33;10.70;99.90
18103;DHT22;9178;51.120;6.192;2023-03-23T10:29:11;10.70;99.90
18103;DHT22;9178;51.120;6.192;2023-03-23T10:31:42;10.60;99.90
18103;DHT22;9178;51.120;6.192;2023-03-23T10:34:13;10.50;99.90
18103;DHT22;9178;51.120;6.192;2023-03-23T10:36:52;10.50;99.90
18103;DHT22;9178;51.120;6.192;2023-03-23T10:39:26;10.50;99.90
18103;DHT22;9178;51.120;6.192;2023-03-23T10:41:54;10.40;99.90
18103;DHT22;9178;51.120;6.192;2023-03-23T10:44:24;10.40;99.90
18103;DHT22;9178;51.120;6.192;2023-03-23T10:46:58;10.40;99.90
18103;DHT22;9178;51.120;6.192;2023-03-23T10:49:28;10.40;99.90
18103;DHT22;9178;51.120;6.192;2023-03-23T10:52:03;10.50;99.90
18103;DHT22;9178;51.120;6.192;2023-03-23T10:54:37;10.60;99.90
18103;DHT22;9178;51.120;6.192;2023-03-23T10:57:21;10.70;99.90
18103;DHT22;9178;51.120;6.192;2023-03-23T10:59:48;10.80;99.90
18103;DHT22;9178;51.120;6.192;2023-03-23T11:02:18;10.90;99.90
18103;DHT22;9178;51.120;6.192;2023-03-23T11:04:53;11.00;99.90
18103;DHT22;9178;51.120;6.192;2023-03-23T11:07:26;11.00;99.90
18103;DHT22;9178;51.120;6.192;2023-03-23T11:09:56;11.10;99.90
18103;DHT22;9178;51.120;6.192;2023-03-23T11:12:24;11.20;99.90
18103;DHT22;9178;51.120;6.192;2023-03-23T11:14:51;11.20;99.90
18103;DHT22;9178;51.120;6.192;2023-03-23T11:17:23;11.30;99.90
18103;DHT22;9178;51.120;6.192;2023-03-23T11:19:51;11.30;99.90
18103;DHT22;9178;51.120;6.192;2023-03-23T11:22:24;11.30;99.90
18103;DHT22;9178;51.120;6.192;2023-03-23T11:24:55;11.40;99.90
18103;DHT22;9178;51.120;6.192;2023-03-23T11:27:23;11.50;99.90
18103;DHT22;9178;51.120;6.192;2023-03-23T11:29:53;11.50;99.90
18103;DHT22;9178;51.120;6.192;2023-03-23T11:32:24;11.60;99.90
18103;DHT22;9178;51.120;6.192;2023-03-23T11:34:54;11.70;99.90
18103;DHT22;9178;51.120;6.192;2023-03-23T11:37:28;11.60;99.90
18103;DHT22;9178;51.120;6.192;2023-03-23T11:39:59;11.70;99.90
18103;DHT22;9178;51.120;6.192;2023-03-23T11:42:36;11.70;99.90
18103;DHT22;9178;51.120;6.192;2023-03-23T11:45:15;11.70;99.90
18103;DHT22;9178;51.120;6.192;2023-03-23T11:47:56;11.70;99.90
18103;DHT22;9178;51.120;6.192;2023-03-23T11:50:29;11.70;99.90
18103;DHT22;9178;51.120;6.192;2023-03-23T11:53:01;11.70;99.90
18103;DHT22;9178;51.120;6.192;2023-03-23T11:55:35;11.60;99.90
18103;DHT22;9178;51.120;6.192;2023-03-23T11:58:10;11.60;99.90
18103;DHT22;9178;51.120;6.192;2023-03-23T12:00:43;11.60;99.90
18103;DHT22;9178;51.120;6.192;2023-03-23T12:03:27;11.50;99.90
18103;DHT22;9178;51.120;6.192;2023-03-23T12:06:01;11.60;99.90
18103;DHT22;9178;51.120;6.192;2023-03-23T12:08:50;11.60;99.90
18103;DHT22;9178;51.120;6.192;2023-03-23T12:11:28;11.70;99.90
18103;DHT22;9178;51.120;6.192;2023-03-23T12:14:08;11.70;99.90
18103;DHT22;9178;51.120;6.192;2023-03-23T12:16:48;11.70;99.90
18103;DHT22;9178;51.120;6.192;2023-03-23T12:19:21;11.80;99.90
18103;DHT22;9178;51.120;6.192;2023-03-23T12:21:58;11.80;99.90
18103;DHT22;9178;51.120;6.192;2023-03-23T12:24:36;11.90;99.90
18103;DHT22;9178;51.120;6.192;2023-03-23T12:27:13;11.90;99.90
18103;DHT22;9178;51.120;6.192;2023-03-23T12:29:54;12.00;99.90
18103;DHT22;9178;51.120;6.192;2023-03-23T12:35:24;12.10;99.90
18103;DHT22;9178;51.120;6.192;2023-03-23T12:38:02;12.10;99.90
18103;DHT22;9178;51.120;6.192;2023-03-23T12:40:42;12.10;99.90
18103;DHT22;9178;51.120;6.192;2023-03-23T12:43:19;12.10;99.90
18103;DHT22;9178;51.120;6.192;2023-03-23T12:45:59;12.30;99.90
18103;DHT22;9178;51.120;6.192;2023-03-23T12:48:31;12.40;99.90
18103;DHT22;9178;51.120;6.192;2023-03-23T12:51:14;12.50;99.90
18103;DHT22;9178;51.120;6.192;2023-03-23T12:53:47;12.50;99.90
18103;DHT22;9178;51.120;6.192;2023-03-23T12:56:22;12.60;99.90
18103;DHT22;9178;51.120;6.192;2023-03-23T12:58:55;12.80;99.90
18103;DHT22;9178;51.120;6.192;2023-03-23T13:01:25;12.90;99.90
18103;DHT22;9178;51.120;6.192;2023-03-23T13:03:57;13.10;99.90
18103;DHT22;9178;51.120;6.192;2023-03-23T13:06:29;13.20;99.90
18103;DHT22;9178;51.120;6.192;2023-03-23T13:09:01;13.20;99.90
18103;DHT22;9178;51.120;6.192;2023-03-23T13:11:32;13.20;99.90
18103;DHT22;9178;51.120;6.192;2023-03-23T13:14:08;13.10;99.90
18103;DHT22;9178;51.120;6.192;2023-03-23T13:16:42;13.10;99.90
18103;DHT22;9178;51.120;6.192;2023-03-23T13:19:16;13.10;99.90
18103;DHT22;9178;51.120;6.192;2023-03-23T13:21:53;13.10;99.90
18103;DHT22;9178;51.120;6.192;2023-03-23T13:24:25;13.10;99.90
18103;DHT22;9178;51.120;6.192;2023-03-23T13:26:53;13.10;99.90
18103;DHT22;9178;51.120;6.192;2023-03-23T13:29:24;13.00;99.90
18103;DHT22;9178;51.120;6.192;2023-03-23T13:32:05;13.00;99.90
18103;DHT22;9178;51.120;6.192;2023-03-23T13:34:32;13.00;99.90
18103;DHT22;9178;51.120;6.192;2023-03-23T13:37:01;13.20;99.90
18103;DHT22;9178;51.120;6.192;2023-03-23T13:39:31;13.20;99.90
18103;DHT22;9178;51.120;6.192;2023-03-23T13:42:03;13.30;99.90
18103;DHT22;9178;51.120;6.192;2023-03-23T13:44:56;13.50;99.90
18103;DHT22;9178;51.120;6.192;2023-03-23T13:47:27;13.90;99.90
18103;DHT22;9178;51.120;6.192;2023-03-23T13:49:58;14.50;99.90
18103;DHT22;9178;51.120;6.192;2023-03-23T13:52:37;14.80;99.90
18103;DHT22;9178;51.120;6.192;2023-03-23T13:55:21;14.90;99.90
18103;DHT22;9178;51.120;6.192;2023-03-23T13:57:50;14.90;99.90
18103;DHT22;9178;51.120;6.192;2023-03-23T14:00:46;14.70;99.90
18103;DHT22;9178;51.120;6.192;2023-03-23T14:03:16;14.40;99.90
18103;DHT22;9178;51.120;6.192;2023-03-23T14:05:45;14.40;99.90
18103;DHT22;9178;51.120;6.192;2023-03-23T14:08:20;14.50;99.90
18103;DHT22;9178;51.120;6.192;2023-03-23T14:10:52;14.60;99.90
18103;DHT22;9178;51.120;6.192;2023-03-23T14:13:28;14.50;99.90
18103;DHT22;9178;51.120;6.192;2023-03-23T14:16:02;14.40;99.90
18103;DHT22;9178;51.120;6.192;2023-03-23T14:18:34;14.20;99.90
18103;DHT22;9178;51.120;6.192;2023-03-23T14:21:02;14.10;99.90
18103;DHT22;9178;51.120;6.192;2023-03-23T14:23:31;14.10;99.90
18103;DHT22;9178;51.120;6.192;2023-03-23T14:26:01;14.00;99.90
18103;DHT22;9178;51.120;6.192;2023-03-23T14:28:37;14.00;99.90
18103;DHT22;9178;51.120;6.192;2023-03-23T14:31:14;13.90;99.90
18103;DHT22;9178;51.120;6.192;2023-03-23T14:33:43;13.80;99.90
18103;DHT22;9178;51.120;6.192;2023-03-23T14:36:10;13.70;99.90
18103;DHT22;9178;51.120;6.192;2023-03-23T14:38:37;14.10;99.90
18103;DHT22;9178;51.120;6.192;2023-03-23T14:41:05;14.30;99.90
18103;DHT22;9178;51.120;6.192;2023-03-23T14:43:33;14.40;99.90
18103;DHT22;9178;51.120;6.192;2023-03-23T14:46:07;14.30;99.90
18103;DHT22;9178;51.120;6.192;2023-03-23T14:48:35;14.50;99.90
18103;DHT22;9178;51.120;6.192;2023-03-23T14:51:04;14.70;99.90
18103;DHT22;9178;51.120;6.192;2023-03-23T14:53:35;14.70;99.90
18103;DHT22;9178;51.120;6.192;2023-03-23T14:56:06;14.90;99.90
18103;DHT22;9178;51.120;6.192;2023-03-23T14:58:33;15.00;99.90
18103;DHT22;9178;51.120;6.192;2023-03-23T15:01:03;15.10;99.90
18103;DHT22;9178;51.120;6.192;2023-03-23T15:03:35;15.00;99.90
18103;DHT22;9178;51.120;6.192;2023-03-23T15:06:06;15.10;99.90
18103;DHT22;9178;51.120;6.192;2023-03-23T15:08:35;15.00;99.90
18103;DHT22;9178;51.120;6.192;2023-03-23T15:11:08;15.10;99.90
18103;DHT22;9178;51.120;6.192;2023-03-23T15:13:43;15.20;99.90
18103;DHT22;9178;51.120;6.192;2023-03-23T15:16:14;15.20;99.90
18103;DHT22;9178;51.120;6.192;2023-03-23T15:18:49;15.20;99.90
18103;DHT22;9178;51.120;6.192;2023-03-23T15:21:25;15.30;99.90
18103;DHT22;9178;51.120;6.192;2023-03-23T15:23:53;15.50;99.90
18103;DHT22;9178;51.120;6.192;2023-03-23T15:26:30;15.50;99.90
18103;DHT22;9178;51.120;6.192;2023-03-23T15:29:11;15.40;99.90
18103;DHT22;9178;51.120;6.192;2023-03-23T15:31:42;15.40;99.90
18103;DHT22;9178;51.120;6.192;2023-03-23T15:34:24;15.70;99.90
18103;DHT22;9178;51.120;6.192;2023-03-23T15:36:59;15.90;99.90
18103;DHT22;9178;51.120;6.192;2023-03-23T15:39:27;16.20;99.90
18103;DHT22;9178;51.120;6.192;2023-03-23T15:41:55;16.00;99.90
18103;DHT22;9178;51.120;6.192;2023-03-23T15:44:27;15.80;99.90
18103;DHT22;9178;51.120;6.192;2023-03-23T15:47:10;15.70;99.90
18103;DHT22;9178;51.120;6.192;2023-03-23T15:49:40;15.50;99.90
18103;DHT22;9178;51.120;6.192;2023-03-23T15:52:09;15.50;99.90
18103;DHT22;9178;51.120;6.192;2023-03-23T15:54:37;15.60;99.90
18103;DHT22;9178;51.120;6.192;2023-03-23T15:57:04;15.50;99.90
18103;DHT22;9178;51.120;6.192;2023-03-23T15:59:33;15.60;99.90
18103;DHT22;9178;51.120;6.192;2023-03-23T16:02:00;15.60;99.90
18103;DHT22;9178;51.120;6.192;2023-03-23T16:04:27;15.60;99.90
18103;DHT22;9178;51.120;6.192;2023-03-23T16:06:56;15.60;99.90
18103;DHT22;9178;51.120;6.192;2023-03-23T16:09:24;15.50;99.90
18103;DHT22;9178;51.120;6.192;2023-03-23T16:11:51;15.40;99.90
18103;DHT22;9178;51.120;6.192;2023-03-23T16:14:18;15.40;99.90